createdAt,value
2023-05-19T00:02:05.814Z,68.89
2023-05-19T00:04:35.446Z,68.72
2023-05-19T00:07:05.575Z,69.22
2023-05-19T00:09:34.757Z,69.17
2023-05-19T00:12:03.797Z,69.05
2023-05-19T00:14:34.637Z,69.50
2023-05-19T00:17:03.710Z,69.74
2023-05-19T00:19:32.464Z,69.71
2023-05-19T00:22:00.929Z,69.96
2023-05-19T00:24:29.784Z,70.19
2023-05-19T00:26:58.209Z,70.09
2023-05-19T00:29:26.639Z,70.40
2023-05-19T00:31:57.404Z,70.21
2023-05-19T00:34:25.936Z,70.24
2023-05-19T00:36:54.239Z,70.09
2023-05-19T00:39:22.616Z,70.16
2023-05-19T00:41:50.950Z,70.01
2023-05-19T00:44:19.452Z,69.96
2023-05-19T00:46:47.817Z,69.86
2023-05-19T00:49:17.979Z,69.90
2023-05-19T00:51:46.792Z,69.88
2023-05-19T00:54:15.926Z,69.56
2023-05-19T00:56:44.294Z,69.54
2023-05-19T00:59:12.682Z,69.85
2023-05-19T01:01:42.395Z,69.95
2023-05-19T01:04:11.618Z,69.63
2023-05-19T01:06:41.830Z,69.88
2023-05-19T01:09:10.391Z,69.92
2023-05-19T01:11:38.874Z,70.03
2023-05-19T01:14:07.219Z,69.89
2023-05-19T01:16:41.694Z,69.86
2023-05-19T01:19:32.103Z,70.05
2023-05-19T01:22:22.820Z,69.91
2023-05-19T01:25:44.964Z,70.08
2023-05-19T01:28:37.963Z,70.26
2023-05-19T01:31:11.853Z,70.12
2023-05-19T01:33:42.650Z,70.25
2023-05-19T01:36:12.377Z,70.32
2023-05-19T01:38:41.362Z,70.12
2023-05-19T01:41:10.857Z,70.43
2023-05-19T01:43:39.977Z,70.89
2023-05-19T01:46:10.331Z,70.82
2023-05-19T01:48:39.491Z,70.92
2023-05-19T01:51:07.836Z,71.00
2023-05-19T01:53:36.752Z,71.39
2023-05-19T01:56:06.161Z,71.27
2023-05-19T01:58:45.896Z,71.64
2023-05-19T02:01:30.422Z,71.96
2023-05-19T02:04:18.521Z,71.98
2023-05-19T02:06:54.971Z,72.47
2023-05-19T02:09:30.359Z,72.56
2023-05-19T02:12:07.599Z,72.67
2023-05-19T02:14:45.055Z,73.06
2023-05-19T02:17:17.651Z,73.38
2023-05-19T02:19:46.355Z,73.25
2023-05-19T02:22:16.190Z,73.55
2023-05-19T02:24:46.603Z,73.62
2023-05-19T02:27:15.037Z,73.71
2023-05-19T02:29:44.629Z,74.14
2023-05-19T02:32:14.799Z,74.34
2023-05-19T02:34:45.636Z,74.66
2023-05-19T02:37:14.769Z,74.45
2023-05-19T02:39:43.429Z,74.46
2023-05-19T02:42:12.335Z,74.38
2023-05-19T02:44:40.613Z,74.48
2023-05-19T02:47:08.983Z,74.49
2023-05-19T02:49:38.693Z,74.44
2023-05-19T02:52:07.891Z,74.48
2023-05-19T02:54:36.551Z,74.41
2023-05-19T02:57:05.433Z,74.44
2023-05-19T02:59:33.981Z,74.48
2023-05-19T03:02:03.783Z,74.47
2023-05-19T03:04:32.137Z,74.19
2023-05-19T03:07:02.239Z,74.34
2023-05-19T03:09:31.264Z,74.30
2023-05-19T03:12:03.914Z,74.35
2023-05-19T03:14:33.907Z,74.12
2023-05-19T03:17:02.506Z,73.94
2023-05-19T03:19:32.543Z,74.25
2023-05-19T03:22:02.318Z,74.20
2023-05-19T03:24:30.665Z,74.06
2023-05-19T03:26:59.041Z,74.19
2023-05-19T03:29:27.433Z,74.47
2023-05-19T03:31:56.083Z,74.40
2023-05-19T03:34:24.576Z,74.58
2023-05-19T03:36:52.953Z,74.75
2023-05-19T03:39:23.596Z,74.75
2023-05-19T03:41:52.857Z,74.81
2023-05-19T03:44:21.131Z,75.04
2023-05-19T03:46:49.633Z,75.16
2023-05-19T03:49:43.832Z,75.49
2023-05-19T03:52:30.859Z,75.40
2023-05-19T03:55:10.456Z,74.96
2023-05-19T03:57:38.816Z,75.27
2023-05-19T04:00:11.230Z,75.27
2023-05-19T04:02:40.593Z,75.63
2023-05-19T04:05:10.098Z,75.67
2023-05-19T04:07:39.174Z,75.73
2023-05-19T04:10:10.106Z,75.79
2023-05-19T04:12:38.479Z,75.90
2023-05-19T04:15:08.323Z,75.88
2023-05-19T04:17:36.861Z,75.93
2023-05-19T04:20:06.441Z,76.04
2023-05-19T04:22:35.054Z,76.06
2023-05-19T04:25:04.742Z,76.27
2023-05-19T04:27:36.603Z,76.46
2023-05-19T04:30:06.040Z,76.52
2023-05-19T04:32:34.532Z,76.32
2023-05-19T04:35:03.273Z,76.60
2023-05-19T04:37:31.674Z,76.47
2023-05-19T04:40:00.398Z,76.47
2023-05-19T04:42:30.764Z,76.57
2023-05-19T04:45:03.582Z,76.66
2023-05-19T04:47:36.979Z,76.65
2023-05-19T04:50:07.412Z,76.52
2023-05-19T04:52:36.251Z,76.43
2023-05-19T04:55:07.692Z,76.46
2023-05-19T04:57:37.682Z,76.54
2023-05-19T05:00:13.296Z,76.44
2023-05-19T05:03:05.146Z,76.17
2023-05-19T05:05:34.552Z,76.65
2023-05-19T05:08:03.179Z,76.33
2023-05-19T05:10:36.579Z,76.33
2023-05-19T05:13:05.729Z,76.52
2023-05-19T05:15:36.244Z,76.23
2023-05-19T05:18:05.762Z,76.62
2023-05-19T05:20:35.379Z,76.59
2023-05-19T05:23:04.531Z,76.42
2023-05-19T05:25:35.337Z,76.44
2023-05-19T05:28:05.353Z,76.14
2023-05-19T05:30:37.677Z,75.72
2023-05-19T05:33:08.451Z,75.93
2023-05-19T05:35:39.926Z,76.06
2023-05-19T05:38:11.397Z,75.76
2023-05-19T05:40:40.084Z,75.79
2023-05-19T05:43:09.628Z,75.77
2023-05-19T05:45:45.614Z,75.42
2023-05-19T05:48:15.008Z,75.48
2023-05-19T05:50:46.474Z,75.20
2023-05-19T05:53:21.376Z,74.92
2023-05-19T05:55:53.596Z,74.49
2023-05-19T05:58:24.301Z,74.33
2023-05-19T06:00:57.581Z,73.34
2023-05-19T06:03:27.397Z,72.71
2023-05-19T06:05:57.668Z,72.46
2023-05-19T06:08:26.052Z,72.67
2023-05-19T06:10:54.579Z,72.57
2023-05-19T06:13:24.192Z,72.42
2023-05-19T06:15:54.274Z,72.76
2023-05-19T06:18:27.485Z,72.64
2023-05-19T06:20:56.117Z,72.44
2023-05-19T06:23:25.282Z,71.73
2023-05-19T06:25:53.861Z,71.08
2023-05-19T06:28:22.292Z,70.15
2023-05-19T06:30:55.009Z,69.67
2023-05-19T06:33:43.374Z,69.24
2023-05-19T06:36:12.089Z,69.17
2023-05-19T06:38:42.943Z,68.95
2023-05-19T06:41:11.647Z,68.58
2023-05-19T06:43:40.285Z,68.16
2023-05-19T06:46:13.115Z,68.23
2023-05-19T06:48:41.725Z,68.66
2023-05-19T06:51:10.546Z,68.25
2023-05-19T06:53:40.916Z,66.99
2023-05-19T06:56:10.826Z,67.17
2023-05-19T06:58:41.328Z,66.64
2023-05-19T07:01:11.252Z,65.72
2023-05-19T07:03:46.736Z,65.72
2023-05-19T07:06:16.211Z,65.57
2023-05-19T07:08:45.049Z,64.81
2023-05-19T07:11:14.173Z,63.92
2023-05-19T07:13:43.401Z,66.32
2023-05-19T07:16:13.580Z,67.89
2023-05-19T07:18:42.058Z,70.14
2023-05-19T07:21:12.118Z,68.79
2023-05-19T07:23:40.619Z,66.82
2023-05-19T07:26:09.043Z,67.33
2023-05-19T07:28:39.856Z,67.16
2023-05-19T07:31:10.416Z,65.67
2023-05-19T07:33:40.241Z,65.21
2023-05-19T07:36:09.067Z,64.91
2023-05-19T07:38:37.465Z,65.33
2023-05-19T07:41:06.072Z,65.56
2023-05-19T07:43:34.558Z,65.03
2023-05-19T07:46:02.930Z,64.19
2023-05-19T07:48:31.392Z,63.39
2023-05-19T07:51:01.187Z,61.27
2023-05-19T07:53:29.533Z,64.60
2023-05-19T07:55:58.774Z,67.56
2023-05-19T07:58:27.624Z,67.12
2023-05-19T08:00:58.798Z,65.39
2023-05-19T08:03:27.724Z,63.96
2023-05-19T08:05:56.411Z,63.74
2023-05-19T08:08:26.700Z,64.54
2023-05-19T08:10:55.079Z,63.93
2023-05-19T08:13:23.489Z,62.30
2023-05-19T08:15:51.932Z,60.79
2023-05-19T08:18:20.671Z,60.85
2023-05-19T08:20:48.975Z,60.05
2023-05-19T08:23:17.585Z,58.53
2023-05-19T08:25:47.357Z,58.42
2023-05-19T08:28:16.016Z,58.22
2023-05-19T08:30:44.365Z,56.68
2023-05-19T08:33:12.932Z,57.16
2023-05-19T08:35:41.436Z,56.41
2023-05-19T08:38:09.869Z,54.45
2023-05-19T08:40:40.628Z,54.44
2023-05-19T08:43:11.244Z,53.00
2023-05-19T08:45:41.354Z,51.93
2023-05-19T08:48:09.919Z,52.03
2023-05-19T08:50:42.639Z,50.37
2023-05-19T08:53:31.926Z,51.68
2023-05-19T08:56:11.145Z,51.25
2023-05-19T08:58:44.202Z,50.77
2023-05-19T09:01:16.908Z,52.20
2023-05-19T09:03:46.432Z,52.18
2023-05-19T09:06:14.972Z,52.52
2023-05-19T09:08:45.050Z,48.99
2023-05-19T09:11:14.436Z,49.08
2023-05-19T09:13:44.123Z,48.35
2023-05-19T09:16:12.837Z,47.76
2023-05-19T09:18:41.674Z,46.54
2023-05-19T09:21:11.954Z,46.63
2023-05-19T09:23:40.340Z,50.05
2023-05-19T09:26:08.800Z,49.75
2023-05-19T09:28:38.381Z,49.74
2023-05-19T09:31:09.927Z,45.71
2023-05-19T09:33:41.501Z,46.18
2023-05-19T09:36:11.880Z,49.37
2023-05-19T09:38:41.432Z,51.48
2023-05-19T09:41:10.222Z,50.49
2023-05-19T09:43:38.544Z,51.21
2023-05-19T09:46:12.170Z,50.90
2023-05-19T09:48:42.908Z,49.73
2023-05-19T09:51:11.744Z,50.97
2023-05-19T09:53:40.220Z,50.92
2023-05-19T09:56:11.079Z,49.15
2023-05-19T09:58:43.207Z,48.20
2023-05-19T10:01:13.020Z,47.90
2023-05-19T10:03:43.099Z,46.40
2023-05-19T10:06:12.370Z,44.40
2023-05-19T10:08:42.651Z,47.73
2023-05-19T10:11:12.393Z,46.64
2023-05-19T10:13:41.118Z,48.06
2023-05-19T10:16:12.191Z,47.24
2023-05-19T10:18:42.229Z,45.74
2023-05-19T10:21:11.990Z,46.47
2023-05-19T10:23:40.350Z,44.71
2023-05-19T10:26:10.844Z,46.25
2023-05-19T10:28:42.681Z,46.11
2023-05-19T10:31:18.254Z,48.73
2023-05-19T10:34:15.658Z,47.53
2023-05-19T10:36:48.899Z,45.01
2023-05-19T10:39:23.711Z,43.20
2023-05-19T10:42:03.399Z,45.73
2023-05-19T10:44:50.950Z,43.28
2023-05-19T10:47:25.912Z,42.11
2023-05-19T10:49:55.809Z,46.89
2023-05-19T10:52:29.621Z,48.80
2023-05-19T10:54:58.481Z,49.58
2023-05-19T10:57:31.775Z,50.79
2023-05-19T11:00:01.253Z,48.11
2023-05-19T11:02:42.075Z,51.03
2023-05-19T11:05:12.905Z,48.78
2023-05-19T11:07:44.376Z,47.77
2023-05-19T11:10:13.760Z,47.61
2023-05-19T11:12:44.099Z,48.02
2023-05-19T11:15:14.917Z,48.01
2023-05-19T11:17:49.329Z,49.67
2023-05-19T11:20:26.311Z,47.95
2023-05-19T11:23:08.431Z,47.72
2023-05-19T11:25:45.797Z,46.47
2023-05-19T11:28:16.883Z,47.66
2023-05-19T11:30:50.417Z,47.02
2023-05-19T11:33:21.751Z,47.58
2023-05-19T11:35:52.235Z,47.05
2023-05-19T11:38:21.786Z,46.49
2023-05-19T11:40:51.123Z,45.66
2023-05-19T11:43:19.471Z,44.08
2023-05-19T11:45:47.967Z,47.16
2023-05-19T11:48:17.556Z,45.73
2023-05-19T11:50:47.536Z,43.94
2023-05-19T11:53:17.586Z,45.93
2023-05-19T11:55:47.846Z,43.82
2023-05-19T11:58:17.551Z,43.66
2023-05-19T12:00:47.922Z,42.70
2023-05-19T12:03:17.777Z,41.32
2023-05-19T12:05:50.190Z,42.62
2023-05-19T12:08:19.453Z,42.86
2023-05-19T12:10:50.963Z,42.59
2023-05-19T12:13:21.053Z,42.45
2023-05-19T12:15:52.052Z,42.22
2023-05-19T12:18:21.421Z,42.67
2023-05-19T12:20:51.481Z,45.47
2023-05-19T12:23:20.218Z,45.10
2023-05-19T12:25:49.916Z,44.30
2023-05-19T12:28:18.307Z,43.54
2023-05-19T12:30:52.135Z,43.34
2023-05-19T12:33:20.639Z,43.04
2023-05-19T12:35:52.364Z,43.36
2023-05-19T12:38:21.665Z,43.70
2023-05-19T12:40:51.657Z,44.22
2023-05-19T12:43:24.204Z,44.55
2023-05-19T12:45:53.475Z,44.47
2023-05-19T12:48:23.965Z,42.84
2023-05-19T12:50:55.848Z,43.15
2023-05-19T12:53:27.683Z,41.85
2023-05-19T12:55:56.922Z,42.41
2023-05-19T12:58:25.343Z,41.73
2023-05-19T13:01:00.841Z,41.93
2023-05-19T13:03:29.408Z,41.86
2023-05-19T13:05:59.714Z,41.69
2023-05-19T13:08:28.377Z,41.20
2023-05-19T13:10:56.872Z,42.82
2023-05-19T13:13:25.259Z,42.76
2023-05-19T13:15:53.774Z,43.04
2023-05-19T13:18:22.458Z,42.28
2023-05-19T13:20:52.805Z,40.78
2023-05-19T13:23:22.536Z,39.83
2023-05-19T13:25:51.853Z,39.85
2023-05-19T13:28:20.204Z,40.32
2023-05-19T13:30:49.616Z,42.40
2023-05-19T13:33:18.070Z,42.22
2023-05-19T13:35:46.611Z,40.62
2023-05-19T13:38:15.077Z,40.71
2023-05-19T13:40:45.824Z,40.58
2023-05-19T13:43:14.282Z,41.64
2023-05-19T13:45:43.167Z,40.34
2023-05-19T13:48:12.206Z,41.32
2023-05-19T13:50:40.641Z,39.99
2023-05-19T13:53:09.435Z,40.40
2023-05-19T13:55:38.303Z,40.25
2023-05-19T13:58:10.846Z,39.55
2023-05-19T14:00:39.759Z,39.93
2023-05-19T14:03:08.576Z,39.89
2023-05-19T14:05:37.499Z,38.74
2023-05-19T14:08:06.835Z,40.52
2023-05-19T14:10:35.500Z,39.91
2023-05-19T14:13:30.282Z,39.59
2023-05-19T14:15:54.334Z,39.19
2023-05-19T14:18:22.703Z,39.71
2023-05-19T14:20:50.982Z,39.89
2023-05-19T14:23:20.418Z,39.85
2023-05-19T14:25:48.857Z,40.42
2023-05-19T14:28:18.346Z,39.44
2023-05-19T14:30:46.991Z,40.14
2023-05-19T14:33:16.843Z,39.13
2023-05-19T14:35:45.283Z,39.38
2023-05-19T14:38:14.506Z,39.55
2023-05-19T14:40:43.112Z,39.72
2023-05-19T14:43:11.652Z,39.50
2023-05-19T14:45:41.885Z,39.40
2023-05-19T14:48:12.044Z,38.38
2023-05-19T14:50:41.796Z,38.52
2023-05-19T14:53:10.176Z,41.38
2023-05-19T14:55:38.872Z,42.58
2023-05-19T14:58:13.074Z,39.94
2023-05-19T15:00:55.020Z,40.95
2023-05-19T15:03:24.210Z,40.03
2023-05-19T15:05:54.032Z,39.36
2023-05-19T15:08:22.388Z,39.44
2023-05-19T15:10:51.306Z,39.83
2023-05-19T15:13:21.401Z,40.30
2023-05-19T15:15:49.859Z,40.35
2023-05-19T15:18:18.811Z,39.80
2023-05-19T15:20:47.512Z,39.86
2023-05-19T15:23:17.248Z,39.16
2023-05-19T15:25:46.118Z,38.91
2023-05-19T15:28:16.692Z,38.81
2023-05-19T15:30:47.474Z,38.62
2023-05-19T15:33:15.841Z,39.10
2023-05-19T15:35:44.201Z,39.28
2023-05-19T15:38:13.110Z,40.11
2023-05-19T15:40:43.963Z,39.95
2023-05-19T15:43:12.306Z,39.97
2023-05-19T15:45:40.909Z,40.32
2023-05-19T15:48:09.453Z,40.03
2023-05-19T15:50:38.010Z,39.37
2023-05-19T15:53:07.702Z,38.98
2023-05-19T15:55:36.156Z,38.76
2023-05-19T15:58:06.264Z,38.89
2023-05-19T16:00:34.779Z,38.40
2023-05-19T16:03:03.301Z,38.97
2023-05-19T16:05:31.724Z,39.71
2023-05-19T16:08:00.212Z,39.74
2023-05-19T16:10:28.548Z,39.88
2023-05-19T16:12:56.816Z,39.79
2023-05-19T16:15:26.557Z,39.18
2023-05-19T16:17:55.326Z,38.65
2023-05-19T16:20:26.798Z,38.87
2023-05-19T16:22:55.809Z,40.30
2023-05-19T16:25:24.538Z,40.35
2023-05-19T16:27:53.545Z,40.13
2023-05-19T16:30:23.034Z,39.92
2023-05-19T16:32:53.734Z,39.30
2023-05-19T16:35:22.772Z,39.48
2023-05-19T16:37:51.262Z,39.34
2023-05-19T16:40:19.887Z,39.31
2023-05-19T16:42:48.280Z,38.88
2023-05-19T16:45:18.300Z,39.52
2023-05-19T16:47:46.735Z,39.05
2023-05-19T16:50:16.533Z,39.70
2023-05-19T16:52:44.901Z,39.58
2023-05-19T16:55:17.265Z,39.68
2023-05-19T16:57:45.725Z,39.54
2023-05-19T17:00:15.586Z,40.26
2023-05-19T17:02:43.987Z,39.81
2023-05-19T17:05:12.345Z,39.18
2023-05-19T17:07:42.076Z,39.74
2023-05-19T17:10:11.615Z,39.02
2023-05-19T17:12:40.112Z,39.10
2023-05-19T17:15:09.742Z,39.62
2023-05-19T17:17:38.187Z,39.04
2023-05-19T17:20:08.642Z,39.06
2023-05-19T17:22:37.030Z,39.40
2023-05-19T17:25:08.652Z,39.23
2023-05-19T17:27:37.064Z,42.44
2023-05-19T17:30:07.050Z,44.57
2023-05-19T17:32:39.291Z,45.17
2023-05-19T17:35:09.370Z,46.00
2023-05-19T17:37:37.759Z,46.06
2023-05-19T17:40:09.738Z,46.50
2023-05-19T17:42:38.105Z,47.17
2023-05-19T17:45:08.266Z,47.96
2023-05-19T17:47:36.716Z,48.23
2023-05-19T17:50:05.634Z,48.77
2023-05-19T17:52:35.046Z,49.26
2023-05-19T17:55:04.289Z,49.62
2023-05-19T17:57:35.063Z,49.83
2023-05-19T18:00:04.370Z,50.32
2023-05-19T18:02:33.827Z,50.83
2023-05-19T18:05:03.321Z,51.24
2023-05-19T18:07:33.905Z,50.90
2023-05-19T18:10:02.869Z,50.93
2023-05-19T18:12:31.214Z,51.05
2023-05-19T18:15:01.129Z,51.00
2023-05-19T18:17:29.561Z,51.08
2023-05-19T18:19:57.932Z,51.22
2023-05-19T18:22:27.404Z,51.09
2023-05-19T18:24:57.528Z,51.16
2023-05-19T18:27:28.063Z,50.86
2023-05-19T18:29:56.383Z,50.84
2023-05-19T18:32:26.291Z,51.17
2023-05-19T18:34:54.802Z,51.22
2023-05-19T18:37:23.624Z,51.21
2023-05-19T18:39:52.016Z,51.24
2023-05-19T18:42:20.488Z,51.10
2023-05-19T18:44:50.589Z,51.20
2023-05-19T18:47:19.747Z,51.05
2023-05-19T18:49:50.268Z,51.04
2023-05-19T18:52:19.949Z,50.62
2023-05-19T18:54:48.764Z,51.16
2023-05-19T18:57:17.143Z,50.69
2023-05-19T18:59:45.449Z,50.94
2023-05-19T19:02:13.840Z,51.16
2023-05-19T19:04:42.340Z,51.47
2023-05-19T19:07:12.304Z,51.86
2023-05-19T19:09:43.612Z,52.10
2023-05-19T19:12:12.033Z,52.18
2023-05-19T19:14:40.495Z,52.46
2023-05-19T19:17:09.157Z,52.75
2023-05-19T19:19:37.750Z,52.78
2023-05-19T19:22:06.447Z,53.27
2023-05-19T19:24:36.762Z,54.00
2023-05-19T19:27:06.106Z,54.18
2023-05-19T19:29:34.524Z,54.81
2023-05-19T19:32:02.973Z,55.28
2023-05-19T19:34:31.406Z,55.96
2023-05-19T19:36:59.761Z,56.30
2023-05-19T19:39:28.234Z,56.44
2023-05-19T19:41:57.958Z,57.03
2023-05-19T19:44:26.513Z,57.45
2023-05-19T19:46:54.952Z,57.75
2023-05-19T19:49:23.449Z,58.08
2023-05-19T19:51:52.021Z,58.15
2023-05-19T19:54:20.418Z,58.31
2023-05-19T19:56:48.740Z,58.68
2023-05-19T19:59:18.900Z,59.19
2023-05-19T20:01:47.405Z,59.22
2023-05-19T20:04:16.161Z,59.12
2023-05-19T20:06:44.640Z,59.38
2023-05-19T20:09:13.142Z,59.63
2023-05-19T20:11:41.553Z,59.73
2023-05-19T20:14:10.013Z,59.88
2023-05-19T20:16:40.505Z,60.14
2023-05-19T20:19:09.449Z,60.04
2023-05-19T20:21:37.956Z,60.12
2023-05-19T20:24:06.712Z,60.37
2023-05-19T20:26:35.267Z,60.48
2023-05-19T20:29:03.603Z,60.61
2023-05-19T20:31:31.921Z,60.68
2023-05-19T20:34:01.964Z,60.68
2023-05-19T20:36:30.970Z,60.55
2023-05-19T20:38:59.678Z,60.69
2023-05-19T20:41:28.212Z,61.09
2023-05-19T20:43:57.232Z,61.21
2023-05-19T20:46:25.701Z,61.16
2023-05-19T20:48:54.094Z,61.52
2023-05-19T20:51:25.240Z,62.06
2023-05-19T20:53:53.786Z,62.15
2023-05-19T20:56:23.017Z,62.45
2023-05-19T20:58:51.347Z,62.65
2023-05-19T21:01:19.819Z,62.79
2023-05-19T21:03:48.212Z,63.14
2023-05-19T21:06:16.517Z,63.62
2023-05-19T21:08:46.251Z,63.70
2023-05-19T21:11:14.712Z,64.29
2023-05-19T21:13:43.348Z,64.46
2023-05-19T21:16:11.750Z,64.27
2023-05-19T21:18:40.208Z,64.76
2023-05-19T21:21:08.566Z,64.77
2023-05-19T21:23:36.950Z,65.03
2023-05-19T21:26:07.346Z,65.06
2023-05-19T21:28:35.828Z,65.25
2023-05-19T21:31:05.462Z,65.17
2023-05-19T21:33:33.921Z,65.41
2023-05-19T21:36:02.254Z,65.48
2023-05-19T21:38:30.873Z,65.54
2023-05-19T21:40:59.312Z,65.79
2023-05-19T21:43:28.980Z,65.70
2023-05-19T21:45:57.298Z,65.77
2023-05-19T21:48:25.984Z,66.24
2023-05-19T21:50:55.354Z,66.12
2023-05-19T21:53:23.784Z,66.32
2023-05-19T21:55:52.230Z,66.14
2023-05-19T21:58:20.746Z,66.31
2023-05-19T22:00:56.025Z,66.25
2023-05-19T22:03:24.696Z,66.28
2023-05-19T22:05:55.549Z,66.28
2023-05-19T22:08:24.516Z,66.61
2023-05-19T22:10:53.847Z,66.76
2023-05-19T22:13:22.301Z,66.76
2023-05-19T22:15:52.103Z,67.13
2023-05-19T22:18:20.521Z,67.12
2023-05-19T22:20:48.802Z,67.12
2023-05-19T22:23:17.252Z,67.14
2023-05-19T22:25:45.657Z,67.14
2023-05-19T22:28:13.998Z,67.29
2023-05-19T22:30:43.780Z,67.53
2023-05-19T22:33:13.723Z,67.64
2023-05-19T22:35:42.825Z,67.45
2023-05-19T22:38:11.810Z,67.74
2023-05-19T22:40:40.312Z,67.79
2023-05-19T22:43:08.726Z,67.63
2023-05-19T22:45:37.306Z,67.43
2023-05-19T22:48:06.608Z,67.48
2023-05-19T22:50:36.348Z,67.67
2023-05-19T22:53:04.702Z,67.94
2023-05-19T22:55:33.291Z,67.94
2023-05-19T22:58:01.805Z,67.73
2023-05-19T23:00:30.294Z,67.71
2023-05-19T23:02:58.989Z,67.98
2023-05-19T23:05:27.369Z,68.07
2023-05-19T23:07:57.175Z,68.02
2023-05-19T23:10:25.566Z,67.97
2023-05-19T23:12:54.008Z,68.18
2023-05-19T23:15:22.462Z,68.09
2023-05-19T23:17:50.906Z,67.91
2023-05-19T23:20:19.468Z,68.07
2023-05-19T23:22:47.774Z,68.08
2023-05-19T23:25:17.679Z,68.09
2023-05-19T23:27:46.573Z,68.14
2023-05-19T23:30:14.892Z,67.98
2023-05-19T23:32:43.368Z,67.78
2023-05-19T23:35:14.030Z,68.04
2023-05-19T23:37:42.191Z,67.73
2023-05-19T23:40:11.470Z,67.66
2023-05-19T23:42:41.216Z,67.62
2023-05-19T23:45:10.656Z,67.51
2023-05-19T23:47:39.282Z,67.63
2023-05-19T23:50:08.488Z,67.43
2023-05-19T23:52:36.802Z,67.40
2023-05-19T23:55:06.020Z,67.16
2023-05-19T23:57:34.290Z,67.42
